createdAt,value
2022-07-26T00:00:56.722Z,99631.05
2022-07-26T00:02:01.244Z,99630.83
2022-07-26T00:03:05.429Z,99628.56
2022-07-26T00:04:09.773Z,99628.56
2022-07-26T00:05:13.889Z,99622.66
2022-07-26T00:06:19.073Z,99622.66
2022-07-26T00:07:23.387Z,99624.23
2022-07-26T00:08:27.425Z,99628.62
2022-07-26T00:09:31.585Z,99623.62
2022-07-26T00:10:39.095Z,99625.73
2022-07-26T00:11:44.338Z,99617.13
2022-07-26T00:12:48.405Z,99621.30
2022-07-26T00:13:52.882Z,99621.30
2022-07-26T00:14:57.010Z,99621.30
2022-07-26T00:16:01.608Z,99621.30
2022-07-26T00:17:06.423Z,99624.02
2022-07-26T00:18:13.634Z,99621.14
2022-07-26T00:19:16.596Z,99614.45
2022-07-26T00:20:22.400Z,99624.31
2022-07-26T00:21:28.629Z,99622.42
2022-07-26T00:22:35.816Z,99621.98
2022-07-26T00:23:39.000Z,99618.27
2022-07-26T00:24:43.136Z,99620.78
2022-07-26T00:25:47.847Z,99620.78
2022-07-26T00:26:51.915Z,99622.52
2022-07-26T00:28:19.449Z,99619.63
2022-07-26T00:29:04.244Z,99619.63
2022-07-26T00:30:09.920Z,99622.97
2022-07-26T00:31:15.649Z,99622.97
2022-07-26T00:32:21.380Z,99618.34
2022-07-26T00:33:25.372Z,99614.34
2022-07-26T00:34:29.494Z,99614.34
2022-07-26T00:35:33.665Z,99613.34
2022-07-26T00:36:41.835Z,99612.11
2022-07-26T00:37:43.615Z,99615.45
2022-07-26T00:38:47.876Z,99608.19
2022-07-26T00:39:52.071Z,99610.91
2022-07-26T00:40:56.196Z,99610.91
2022-07-26T00:42:00.316Z,99607.95
2022-07-26T00:43:05.871Z,99615.45
2022-07-26T00:44:10.019Z,99615.45
2022-07-26T00:45:14.867Z,99601.67
2022-07-26T00:46:19.502Z,99611.08
2022-07-26T00:47:23.790Z,99600.39
2022-07-26T00:48:28.009Z,99603.33
2022-07-26T00:49:32.321Z,99597.88
2022-07-26T00:50:37.181Z,99598.13
2022-07-26T00:51:41.343Z,99597.05
2022-07-26T00:52:47.911Z,99597.05
2022-07-26T00:53:52.088Z,99594.58
2022-07-26T00:54:56.281Z,99596.23
2022-07-26T00:56:00.502Z,99596.44
2022-07-26T00:57:05.206Z,99592.68
2022-07-26T00:58:09.322Z,99592.89
2022-07-26T00:59:14.881Z,99598.34
2022-07-26T01:00:23.444Z,99598.34
2022-07-26T01:01:28.066Z,99590.78
2022-07-26T01:02:32.550Z,99596.23
2022-07-26T01:03:39.697Z,99601.67
2022-07-26T01:04:44.873Z,99596.23
2022-07-26T01:05:49.269Z,99592.68
2022-07-26T01:06:53.565Z,99598.34
2022-07-26T01:07:57.755Z,99593.72
2022-07-26T01:09:02.258Z,99594.58
2022-07-26T01:10:08.921Z,99594.58
2022-07-26T01:11:13.026Z,99592.06
2022-07-26T01:12:17.137Z,99587.89
2022-07-26T01:13:23.227Z,99587.89
2022-07-26T01:14:27.601Z,99591.44
2022-07-26T01:15:31.648Z,99590.00
2022-07-26T01:16:36.077Z,99595.45
2022-07-26T01:17:40.351Z,99590.86
2022-07-26T01:18:44.428Z,99582.90
2022-07-26T01:19:48.409Z,99588.34
2022-07-26T01:20:54.384Z,99588.34
2022-07-26T01:22:01.983Z,99585.00
2022-07-26T01:23:08.810Z,99592.13
2022-07-26T01:24:13.169Z,99598.62
2022-07-26T01:25:17.394Z,99598.62
2022-07-26T01:26:23.332Z,99599.69
2022-07-26T01:27:33.663Z,99597.41
2022-07-26T01:28:38.760Z,99595.14
2022-07-26T01:29:49.944Z,99591.80
2022-07-26T01:30:54.140Z,99593.91
2022-07-26T01:31:58.244Z,99597.70
2022-07-26T01:33:02.385Z,99597.70
2022-07-26T01:34:08.546Z,99591.63
2022-07-26T01:35:12.956Z,99587.25
2022-07-26T01:36:20.571Z,99582.47
2022-07-26T01:37:24.571Z,99582.47
2022-07-26T01:38:29.034Z,99583.74
2022-07-26T01:39:33.078Z,99586.91
2022-07-26T01:40:37.413Z,99584.19
2022-07-26T01:41:41.988Z,99584.19
2022-07-26T01:42:52.267Z,99587.73
2022-07-26T01:43:55.138Z,99587.73
2022-07-26T01:45:16.614Z,99585.22
2022-07-26T01:46:10.301Z,99585.22
2022-07-26T01:47:14.393Z,99590.67
2022-07-26T01:48:18.429Z,99589.84
2022-07-26T01:49:22.581Z,99585.67
2022-07-26T01:50:28.667Z,99582.36
2022-07-26T01:51:32.428Z,99582.36
2022-07-26T01:52:36.563Z,99584.02
2022-07-26T01:53:40.624Z,99589.91
2022-07-26T01:54:44.685Z,99589.91
2022-07-26T01:55:50.919Z,99588.84
2022-07-26T01:56:56.276Z,99590.11
2022-07-26T01:58:00.380Z,99593.66
2022-07-26T01:59:05.120Z,99585.30
2022-07-26T02:00:10.228Z,99586.95
2022-07-26T02:01:38.714Z,99598.07
2022-07-26T02:02:24.563Z,99598.07
2022-07-26T02:03:28.800Z,99599.55
2022-07-26T02:04:32.901Z,99598.72
2022-07-26T02:05:37.082Z,99598.72
2022-07-26T02:06:43.074Z,99598.52
2022-07-26T02:07:46.836Z,99604.16
2022-07-26T02:08:52.613Z,99602.51
2022-07-26T02:09:58.341Z,99602.51
2022-07-26T02:11:04.173Z,99598.72
2022-07-26T02:12:08.587Z,99598.72
2022-07-26T02:13:14.289Z,99598.72
2022-07-26T02:14:25.634Z,99599.55
2022-07-26T02:15:24.102Z,99598.34
2022-07-26T02:16:29.649Z,99598.34
2022-07-26T02:17:33.848Z,99598.72
2022-07-26T02:18:38.144Z,99598.72
2022-07-26T02:19:53.117Z,99593.90
2022-07-26T02:20:47.935Z,99593.90
2022-07-26T02:21:52.032Z,99597.24
2022-07-26T02:22:56.148Z,99591.35
2022-07-26T02:24:00.163Z,99588.84
2022-07-26T02:25:05.570Z,99587.80
2022-07-26T02:26:11.273Z,99591.35
2022-07-26T02:27:15.683Z,99584.02
2022-07-26T02:28:19.778Z,99595.73
2022-07-26T02:29:23.980Z,99590.08
2022-07-26T02:30:28.436Z,99590.08
2022-07-26T02:31:32.905Z,99592.36
2022-07-26T02:32:36.792Z,99590.84
2022-07-26T02:33:40.825Z,99590.84
2022-07-26T02:34:44.978Z,99596.06
2022-07-26T02:35:49.121Z,99594.45
2022-07-26T02:36:53.105Z,99594.45
2022-07-26T02:37:58.566Z,99598.66
2022-07-26T02:39:02.618Z,99598.05
2022-07-26T02:40:08.385Z,99598.05
2022-07-26T02:41:12.417Z,99609.92
2022-07-26T02:42:20.245Z,99596.45
2022-07-26T02:43:25.965Z,99602.20
2022-07-26T02:44:30.789Z,99604.26
2022-07-26T02:45:35.440Z,99609.03
2022-07-26T02:46:39.781Z,99602.94
2022-07-26T02:47:51.899Z,99595.90
2022-07-26T02:48:55.951Z,99600.53
2022-07-26T02:50:02.620Z,99600.53
2022-07-26T02:51:06.752Z,99602.76
2022-07-26T02:52:10.753Z,99601.65
2022-07-26T02:53:14.801Z,99603.61
2022-07-26T02:54:18.759Z,99603.61
2022-07-26T02:55:25.152Z,99606.98
2022-07-26T02:56:29.175Z,99612.30
2022-07-26T02:57:45.727Z,99612.30
2022-07-26T02:58:41.985Z,99603.61
2022-07-26T02:59:45.966Z,99603.61
2022-07-26T03:00:50.005Z,99609.66
2022-07-26T03:01:57.074Z,99609.66
2022-07-26T03:02:59.880Z,99601.66
2022-07-26T03:04:04.077Z,99603.69
2022-07-26T03:05:13.744Z,99607.14
2022-07-26T03:06:16.263Z,99607.61
2022-07-26T03:07:20.258Z,99611.55
2022-07-26T03:08:24.396Z,99611.55
2022-07-26T03:09:28.526Z,99606.99
2022-07-26T03:10:32.684Z,99612.95
2022-07-26T03:11:36.771Z,99607.61
2022-07-26T03:12:40.802Z,99608.70
2022-07-26T03:13:44.810Z,99463.28
2022-07-26T03:14:48.848Z,99616.27
2022-07-26T03:15:52.838Z,99616.27
2022-07-26T03:16:57.034Z,99607.56
2022-07-26T03:18:01.100Z,99616.17
2022-07-26T03:19:05.129Z,99615.20
2022-07-26T03:20:10.383Z,99615.20
2022-07-26T03:21:15.819Z,99614.98
2022-07-26T03:22:20.597Z,99526.92
2022-07-26T03:23:24.739Z,99608.70
2022-07-26T03:24:28.712Z,99610.95
2022-07-26T03:25:32.674Z,99605.74
2022-07-26T03:26:38.657Z,99614.89
2022-07-26T03:27:42.720Z,99615.78
2022-07-26T03:28:47.067Z,99608.94
2022-07-26T03:29:51.271Z,99613.92
2022-07-26T03:30:55.371Z,99613.92
2022-07-26T03:32:02.383Z,99607.31
2022-07-26T03:33:05.257Z,99607.91
2022-07-26T03:34:09.417Z,99612.91
2022-07-26T03:35:15.197Z,99470.58
2022-07-26T03:36:20.705Z,99470.58
2022-07-26T03:37:24.949Z,99606.28
2022-07-26T03:38:29.020Z,99606.28
2022-07-26T03:39:34.237Z,99610.67
2022-07-26T03:40:46.125Z,99608.48
2022-07-26T03:41:47.189Z,99612.06
2022-07-26T03:42:51.342Z,99612.06
2022-07-26T03:43:57.394Z,99615.94
2022-07-26T03:45:06.606Z,99618.39
2022-07-26T03:46:11.211Z,99618.39
2022-07-26T03:47:18.953Z,99607.36
2022-07-26T03:48:25.804Z,99607.36
2022-07-26T03:49:30.347Z,99616.14
2022-07-26T03:50:34.449Z,99616.73
2022-07-26T03:51:38.597Z,99616.73
2022-07-26T03:52:43.047Z,99608.98
2022-07-26T03:53:47.142Z,99608.98
2022-07-26T03:54:51.305Z,99608.18
2022-07-26T03:55:56.944Z,99608.18
2022-07-26T03:57:01.128Z,99614.78
2022-07-26T03:58:06.893Z,99611.75
2022-07-26T03:59:12.132Z,99611.75
2022-07-26T04:00:16.265Z,99619.98
2022-07-26T04:01:21.511Z,99615.81
2022-07-26T04:02:27.966Z,99624.33
2022-07-26T04:03:31.972Z,99624.81
2022-07-26T04:04:36.093Z,99624.81
2022-07-26T04:05:40.328Z,99615.41
2022-07-26T04:06:47.896Z,99612.09
2022-07-26T04:07:53.206Z,99618.47
2022-07-26T04:08:57.678Z,99616.51
2022-07-26T04:10:01.736Z,99616.51
2022-07-26T04:11:05.861Z,99610.93
2022-07-26T04:12:09.926Z,99615.31
2022-07-26T04:13:15.271Z,99614.73
2022-07-26T04:14:19.420Z,99625.22
2022-07-26T04:15:25.080Z,99613.25
2022-07-26T04:16:29.357Z,99618.51
2022-07-26T04:17:41.142Z,99614.62
2022-07-26T04:18:51.830Z,99614.62
2022-07-26T04:19:55.964Z,99624.22
2022-07-26T04:21:00.094Z,99626.13
2022-07-26T04:22:04.478Z,99625.00
2022-07-26T04:23:11.993Z,99620.02
2022-07-26T04:24:16.762Z,99621.58
2022-07-26T04:25:20.909Z,99629.72
2022-07-26T04:26:25.905Z,99629.72
2022-07-26T04:27:30.086Z,99624.47
2022-07-26T04:28:34.441Z,99617.65
2022-07-26T04:29:42.559Z,99621.50
2022-07-26T04:30:48.254Z,99621.70
2022-07-26T04:31:52.299Z,99621.61
2022-07-26T04:32:56.604Z,99623.20
2022-07-26T04:34:00.660Z,99633.27
2022-07-26T04:35:05.267Z,99633.27
2022-07-26T04:36:09.554Z,99634.45
2022-07-26T04:37:19.989Z,99627.63
2022-07-26T04:38:21.086Z,99631.48
2022-07-26T04:39:25.133Z,99635.84
2022-07-26T04:40:29.461Z,99635.84
2022-07-26T04:41:33.881Z,99632.30
2022-07-26T04:42:38.413Z,99630.94
2022-07-26T04:43:44.031Z,99630.94
2022-07-26T04:44:48.013Z,99637.73
2022-07-26T04:45:52.965Z,99632.28
2022-07-26T04:46:57.210Z,99632.28
2022-07-26T04:48:07.958Z,99626.03
2022-07-26T04:49:07.059Z,99633.80
2022-07-26T04:50:12.906Z,99633.80
2022-07-26T04:51:20.845Z,99629.49
2022-07-26T04:52:25.014Z,99626.94
2022-07-26T04:53:29.005Z,99626.94
2022-07-26T04:54:33.069Z,99634.59
2022-07-26T04:55:37.786Z,99633.30
2022-07-26T04:56:41.928Z,99635.72
2022-07-26T04:57:48.620Z,99634.66
2022-07-26T04:58:52.726Z,99640.73
2022-07-26T05:00:10.155Z,99640.73
2022-07-26T05:01:11.037Z,99635.72
2022-07-26T05:02:10.081Z,99635.72
2022-07-26T05:03:14.128Z,99639.25
2022-07-26T05:04:18.197Z,99642.17
2022-07-26T05:05:23.000Z,99633.32
2022-07-26T05:06:26.976Z,99644.84
2022-07-26T05:07:42.088Z,99642.39
2022-07-26T05:08:46.115Z,99640.82
2022-07-26T05:09:50.082Z,99637.98
2022-07-26T05:10:55.832Z,99645.08
2022-07-26T05:11:59.822Z,99638.11
2022-07-26T05:13:07.567Z,99638.11
2022-07-26T05:14:11.806Z,99642.69
2022-07-26T05:15:16.602Z,99634.59
2022-07-26T05:16:20.853Z,99638.56
2022-07-26T05:17:26.523Z,99643.69
2022-07-26T05:18:31.663Z,99643.69
2022-07-26T05:19:36.641Z,99636.09
2022-07-26T05:20:40.849Z,99636.09
2022-07-26T05:21:44.881Z,99639.69
2022-07-26T05:22:48.863Z,99649.77
2022-07-26T05:23:52.920Z,99638.36
2022-07-26T05:24:58.933Z,99643.36
2022-07-26T05:26:02.699Z,99643.36
2022-07-26T05:27:08.451Z,99643.34
2022-07-26T05:28:12.563Z,99643.34
2022-07-26T05:29:16.531Z,99641.36
2022-07-26T05:30:20.955Z,99641.36
2022-07-26T05:31:25.422Z,99640.98
2022-07-26T05:32:29.489Z,99651.56
2022-07-26T05:33:34.810Z,99645.93
2022-07-26T05:34:38.790Z,99645.93
2022-07-26T05:35:42.914Z,99655.81
2022-07-26T05:36:47.156Z,99652.14
2022-07-26T05:37:51.220Z,99652.14
2022-07-26T05:38:55.259Z,99650.23
2022-07-26T05:40:00.892Z,99141.84
2022-07-26T05:41:05.730Z,99654.01
2022-07-26T05:42:14.173Z,99519.62
2022-07-26T05:43:18.310Z,99653.69
2022-07-26T05:44:22.343Z,99648.16
2022-07-26T05:45:32.282Z,99658.52
2022-07-26T05:46:36.956Z,99652.83
2022-07-26T05:47:41.090Z,99655.86
2022-07-26T05:48:45.130Z,99655.86
2022-07-26T05:49:49.205Z,99654.19
2022-07-26T05:50:53.269Z,99654.19
2022-07-26T05:52:01.158Z,99657.42
2022-07-26T05:53:06.674Z,99653.30
2022-07-26T05:54:10.755Z,99648.08
2022-07-26T05:55:15.006Z,99651.97
2022-07-26T05:56:19.048Z,99651.39
2022-07-26T05:57:23.139Z,99647.09
2022-07-26T05:58:27.207Z,99647.09
2022-07-26T05:59:33.597Z,99651.87
2022-07-26T06:00:37.743Z,99651.05
2022-07-26T06:01:41.961Z,99646.34
2022-07-26T06:02:46.042Z,99646.12
2022-07-26T06:03:50.295Z,99641.14
2022-07-26T06:04:54.517Z,99644.20
2022-07-26T06:06:00.152Z,99644.20
2022-07-26T06:07:04.278Z,99643.63
2022-07-26T06:08:08.436Z,99640.29
2022-07-26T06:09:14.559Z,99640.29
2022-07-26T06:10:20.267Z,99650.25
2022-07-26T06:11:24.495Z,99651.08
2022-07-26T06:12:30.132Z,99638.54
2022-07-26T06:13:36.654Z,99638.54
2022-07-26T06:14:40.809Z,99649.87
2022-07-26T06:15:47.453Z,99650.48
2022-07-26T06:16:53.629Z,99645.20
2022-07-26T06:17:57.548Z,99641.84
2022-07-26T06:19:01.667Z,99641.84
2022-07-26T06:20:06.427Z,99640.19
2022-07-26T06:21:10.470Z,99637.42
2022-07-26T06:22:14.507Z,99637.42
2022-07-26T06:23:33.571Z,99632.44
2022-07-26T06:24:24.501Z,99630.80
2022-07-26T06:25:30.068Z,99628.05
2022-07-26T06:26:36.113Z,99621.33
2022-07-26T06:27:40.185Z,99621.33
2022-07-26T06:28:44.347Z,99633.48
2022-07-26T06:29:48.264Z,99628.50
2022-07-26T06:30:52.291Z,99628.50
2022-07-26T06:31:56.377Z,99634.55
2022-07-26T06:33:03.416Z,99634.55
2022-07-26T06:34:07.793Z,99627.22
2022-07-26T06:35:14.390Z,99632.98
2022-07-26T06:36:18.757Z,99627.70
2022-07-26T06:37:22.875Z,99627.70
2022-07-26T06:38:27.053Z,99630.16
2022-07-26T06:39:31.038Z,99634.02
2022-07-26T06:40:35.843Z,99629.77
2022-07-26T06:41:39.866Z,99629.72
2022-07-26T06:42:44.337Z,99619.13
2022-07-26T06:43:48.388Z,99617.91
2022-07-26T06:44:53.958Z,99621.30
2022-07-26T06:45:58.040Z,99621.30
2022-07-26T06:47:03.517Z,99610.82
2022-07-26T06:48:07.587Z,99615.72
2022-07-26T06:49:11.591Z,99616.62
2022-07-26T06:50:16.486Z,99610.55
2022-07-26T06:51:28.256Z,99578.41
2022-07-26T06:52:30.661Z,99606.86
2022-07-26T06:53:34.705Z,99615.64
2022-07-26T06:54:38.720Z,99615.64
2022-07-26T06:55:43.168Z,99611.21
2022-07-26T06:56:47.180Z,99605.61
2022-07-26T06:57:52.807Z,99605.61
2022-07-26T06:58:56.773Z,99606.23
2022-07-26T07:00:02.457Z,99606.23
2022-07-26T07:01:13.555Z,99599.06
2022-07-26T07:02:12.416Z,99599.06
2022-07-26T07:03:17.165Z,99608.53
2022-07-26T07:04:22.908Z,99602.95
2022-07-26T07:05:27.007Z,99600.25
2022-07-26T07:06:32.701Z,99601.89
2022-07-26T07:07:37.031Z,99600.92
2022-07-26T07:08:40.994Z,99588.36
2022-07-26T07:09:48.324Z,99586.16
2022-07-26T07:10:53.522Z,99586.73
2022-07-26T07:12:02.458Z,99586.73
2022-07-26T07:13:07.154Z,99591.13
2022-07-26T07:14:13.714Z,99591.13
2022-07-26T07:15:17.448Z,99588.98
2022-07-26T07:16:22.231Z,99597.76
2022-07-26T07:17:26.306Z,99597.76
2022-07-26T07:18:30.352Z,99585.04
2022-07-26T07:19:36.450Z,99590.00
2022-07-26T07:20:41.142Z,99582.83
2022-07-26T07:21:46.832Z,99592.73
2022-07-26T07:22:50.875Z,99584.97
2022-07-26T07:23:54.854Z,99591.34
2022-07-26T07:24:59.918Z,99591.34
2022-07-26T07:26:04.004Z,99592.77
2022-07-26T07:27:08.590Z,99588.91
2022-07-26T07:28:12.622Z,99589.18
2022-07-26T07:29:16.973Z,99588.63
2022-07-26T07:30:23.737Z,99588.63
2022-07-26T07:31:30.500Z,99586.94
2022-07-26T07:32:33.662Z,99594.72
2022-07-26T07:33:52.907Z,99591.08
2022-07-26T07:34:44.939Z,99591.08
2022-07-26T07:35:48.905Z,99585.19
2022-07-26T07:36:53.597Z,99589.84
2022-07-26T07:37:58.495Z,99585.43
2022-07-26T07:39:06.310Z,99576.05
2022-07-26T07:40:10.109Z,99576.05
2022-07-26T07:41:14.314Z,99594.08
2022-07-26T07:42:18.900Z,99594.08
2022-07-26T07:43:22.940Z,99587.78
2022-07-26T07:44:26.959Z,99585.55
2022-07-26T07:45:31.009Z,99591.59
2022-07-26T07:46:35.700Z,99590.28
2022-07-26T07:47:39.789Z,99592.98
2022-07-26T07:48:47.579Z,99592.98
2022-07-26T07:49:54.933Z,99596.91
2022-07-26T07:50:55.362Z,99591.69
2022-07-26T07:51:59.491Z,99597.25
2022-07-26T07:53:04.181Z,99598.05
2022-07-26T07:54:08.310Z,99598.05
2022-07-26T07:55:36.915Z,99598.94
2022-07-26T07:56:18.427Z,99598.67
2022-07-26T07:57:22.533Z,99598.67
2022-07-26T07:58:28.557Z,99606.79
2022-07-26T07:59:34.231Z,99606.79
2022-07-26T08:00:41.903Z,99602.36
2022-07-26T08:01:46.098Z,99602.09
2022-07-26T08:02:50.218Z,99607.85
2022-07-26T08:03:55.851Z,99607.85
2022-07-26T08:05:11.435Z,99613.88
2022-07-26T08:06:09.178Z,99606.49
2022-07-26T08:07:13.247Z,99606.49
2022-07-26T08:08:22.146Z,99596.83
2022-07-26T08:09:26.301Z,99605.42
2022-07-26T08:10:32.311Z,99611.77
2022-07-26T08:11:36.527Z,99611.77
2022-07-26T08:12:43.911Z,99615.08
2022-07-26T08:13:48.266Z,99615.08
2022-07-26T08:14:52.449Z,99612.62
2022-07-26T08:15:57.193Z,99615.63
2022-07-26T08:17:03.311Z,99620.89
2022-07-26T08:18:08.689Z,99622.27
2022-07-26T08:19:13.416Z,99619.22
2022-07-26T08:20:19.162Z,99619.22
2022-07-26T08:21:27.535Z,99615.91
2022-07-26T08:22:32.572Z,99625.03
2022-07-26T08:23:38.409Z,99624.73
2022-07-26T08:24:44.501Z,99624.73
2022-07-26T08:25:58.049Z,99618.39
2022-07-26T08:26:57.068Z,99623.09
2022-07-26T08:28:04.350Z,99618.39
2022-07-26T08:29:08.433Z,99614.52
2022-07-26T08:30:16.852Z,99614.52
2022-07-26T08:31:20.263Z,99611.20
2022-07-26T08:32:26.025Z,99609.26
2022-07-26T08:33:30.412Z,99610.93
2022-07-26T08:34:39.187Z,99610.93
2022-07-26T08:36:09.375Z,99615.34
2022-07-26T08:37:15.897Z,99622.27
2022-07-26T08:38:05.208Z,99619.50
2022-07-26T08:39:08.261Z,99619.50
2022-07-26T08:40:20.728Z,99608.99
2022-07-26T08:41:22.259Z,99609.52
2022-07-26T08:42:26.477Z,99622.48
2022-07-26T08:43:31.935Z,99618.34
2022-07-26T08:44:40.884Z,99619.44
2022-07-26T08:45:46.509Z,99619.44
2022-07-26T08:46:57.443Z,99612.78
2022-07-26T08:49:11.078Z,99608.30
2022-07-26T08:50:17.174Z,99601.99
2022-07-26T08:51:23.937Z,99601.99
2022-07-26T08:52:28.474Z,99610.05
2022-07-26T08:53:36.815Z,99606.77
2022-07-26T08:54:51.329Z,99606.77
2022-07-26T08:56:06.809Z,99599.06
2022-07-26T08:57:04.367Z,99597.97
2022-07-26T08:58:08.434Z,99597.97
2022-07-26T08:59:20.988Z,99595.81
2022-07-26T09:00:27.958Z,99590.26
2022-07-26T09:01:33.641Z,99586.69
2022-07-26T09:02:43.595Z,99586.69
2022-07-26T09:03:49.266Z,99590.00
2022-07-26T09:06:34.397Z,99596.34
2022-07-26T09:07:33.485Z,99596.87
2022-07-26T09:08:37.461Z,99596.87
2022-07-26T09:09:56.621Z,99585.29
2022-07-26T09:11:02.674Z,99588.59
2022-07-26T09:12:18.770Z,99584.74
2022-07-26T09:13:24.417Z,99565.44
2022-07-26T09:14:37.023Z,99565.44
2022-07-26T09:15:42.835Z,99569.88
2022-07-26T09:17:00.001Z,99577.06
2022-07-26T09:18:07.850Z,99577.06
2022-07-26T09:20:31.701Z,99564.91
2022-07-26T09:21:00.178Z,99575.38
2022-07-26T09:21:37.405Z,99564.91
2022-07-26T09:23:03.704Z,99563.22
2022-07-26T09:24:07.931Z,99564.59
2022-07-26T09:25:32.564Z,99570.12
2022-07-26T09:26:36.785Z,99572.34
2022-07-26T09:27:40.722Z,99573.45
2022-07-26T09:28:46.222Z,99573.45
2022-07-26T09:29:54.337Z,99578.11
2022-07-26T09:31:04.132Z,99573.98
2022-07-26T09:32:15.346Z,99573.98
2022-07-26T09:33:21.402Z,99579.78
2022-07-26T09:34:29.965Z,99572.08
2022-07-26T09:35:50.003Z,99584.78
2022-07-26T09:36:53.571Z,99584.78
2022-07-26T09:38:02.195Z,99590.84
2022-07-26T09:39:07.909Z,99573.72
2022-07-26T09:40:14.857Z,99565.48
2022-07-26T09:41:25.436Z,99563.80
2022-07-26T09:42:31.016Z,99583.66
2022-07-26T09:43:37.550Z,99571.52
2022-07-26T09:44:47.902Z,99566.55
2022-07-26T09:46:08.201Z,99575.09
2022-07-26T09:47:12.111Z,99575.09
2022-07-26T09:48:19.067Z,99562.91
2022-07-26T09:49:27.231Z,99574.51
2022-07-26T09:50:34.689Z,99574.51
2022-07-26T09:51:45.835Z,99577.02
2022-07-26T09:53:10.685Z,99577.59
2022-07-26T09:54:32.033Z,99577.59
2022-07-26T09:55:29.629Z,99568.80
2022-07-26T09:56:51.294Z,99567.12
2022-07-26T09:57:56.945Z,99574.56
2022-07-26T09:59:09.189Z,99572.63
2022-07-26T10:00:23.303Z,99572.63
2022-07-26T10:01:39.575Z,99577.03
2022-07-26T10:02:46.048Z,99574.57
2022-07-26T10:03:53.413Z,99574.83
2022-07-26T10:04:56.067Z,99574.83
2022-07-26T10:06:01.356Z,99577.59
2022-07-26T10:07:07.072Z,99573.16
2022-07-26T10:08:25.877Z,99570.95
2022-07-26T10:09:23.282Z,99569.05
2022-07-26T10:10:43.834Z,99569.05
2022-07-26T10:12:02.658Z,99565.44
2022-07-26T10:13:08.822Z,99568.45
2022-07-26T10:14:37.778Z,99564.30
2022-07-26T10:15:47.253Z,99571.44
2022-07-26T10:16:51.716Z,99566.95
2022-07-26T10:17:55.671Z,99570.55
2022-07-26T10:19:01.799Z,99570.55
2022-07-26T10:20:17.030Z,99579.63
2022-07-26T10:21:27.467Z,99579.63
2022-07-26T10:22:44.280Z,99577.65
2022-07-26T10:23:58.233Z,99577.33
2022-07-26T10:25:24.998Z,99565.75
2022-07-26T10:26:38.107Z,99567.78
2022-07-26T10:27:43.793Z,99567.03
2022-07-26T10:28:49.519Z,99567.03
2022-07-26T10:29:56.529Z,99567.03
2022-07-26T10:31:27.748Z,99569.23
2022-07-26T10:32:34.652Z,99564.53
2022-07-26T10:33:41.752Z,99564.53
2022-07-26T10:34:46.329Z,99557.63
2022-07-26T10:35:50.495Z,99571.42
2022-07-26T10:37:01.976Z,99571.67
2022-07-26T10:38:10.817Z,99569.20
2022-07-26T10:39:18.341Z,99567.02
2022-07-26T10:40:26.638Z,99562.64
2022-07-26T10:41:46.826Z,99562.64
2022-07-26T10:42:50.794Z,99573.13
2022-07-26T10:44:18.681Z,99573.13
2022-07-26T10:45:23.989Z,99568.17
2022-07-26T10:46:31.329Z,99557.70
2022-07-26T10:47:39.509Z,99557.70
2022-07-26T10:49:04.890Z,99566.54
2022-07-26T10:50:10.573Z,99557.95
2022-07-26T10:51:26.016Z,99553.58
2022-07-26T10:52:32.161Z,99553.58
2022-07-26T10:53:36.642Z,99555.22
2022-07-26T10:55:01.696Z,99556.06
2022-07-26T10:56:08.434Z,99556.06
2022-07-26T10:57:12.443Z,99548.28
2022-07-26T10:58:16.911Z,99551.86
2022-07-26T10:59:54.231Z,99551.86
2022-07-26T11:00:37.954Z,99536.95
2022-07-26T11:01:52.343Z,99547.96
2022-07-26T11:02:59.010Z,99554.59
2022-07-26T11:04:03.499Z,99554.59
2022-07-26T11:05:13.247Z,99549.98
2022-07-26T11:06:19.684Z,99533.69
2022-07-26T11:07:23.726Z,99549.69
2022-07-26T11:08:31.785Z,99549.69
2022-07-26T11:09:37.018Z,99557.20
2022-07-26T11:10:44.461Z,99557.20
2022-07-26T11:11:50.656Z,99545.31
2022-07-26T11:13:04.032Z,99545.31
2022-07-26T11:14:14.138Z,99547.80
2022-07-26T11:15:20.393Z,99548.37
2022-07-26T11:16:26.021Z,99553.89
2022-07-26T11:17:31.637Z,99554.45
2022-07-26T11:18:37.896Z,99557.20
2022-07-26T11:19:41.927Z,99556.09
2022-07-26T11:20:48.954Z,99556.09
2022-07-26T11:22:03.367Z,99561.60
2022-07-26T11:23:29.978Z,99541.73
2022-07-26T11:24:35.534Z,99538.72
2022-07-26T11:25:39.716Z,99540.66
2022-07-26T11:26:47.668Z,99540.66
2022-07-26T11:28:07.226Z,99546.44
2022-07-26T11:29:16.714Z,99534.03
2022-07-26T11:30:23.863Z,99534.03
2022-07-26T11:31:50.582Z,99546.18
2022-07-26T11:32:56.765Z,99547.81
2022-07-26T11:34:03.216Z,99537.04
2022-07-26T11:35:12.808Z,99541.16
2022-07-26T11:36:22.410Z,99540.60
2022-07-26T11:37:28.572Z,99540.60
2022-07-26T11:38:48.536Z,99537.83
2022-07-26T11:39:52.549Z,99536.70
2022-07-26T11:40:57.213Z,99543.88
2022-07-26T11:42:10.694Z,99544.41
2022-07-26T11:43:20.206Z,99544.41
2022-07-26T11:44:31.445Z,99552.98
2022-07-26T11:45:33.815Z,99545.78
2022-07-26T11:50:22.970Z,99543.91
2022-07-26T11:51:29.172Z,99538.46
2022-07-26T11:52:34.213Z,99537.88
2022-07-26T11:53:43.447Z,99545.59
2022-07-26T11:55:04.664Z,99535.13
2022-07-26T11:56:19.533Z,99540.64
2022-07-26T11:57:24.340Z,99535.15
2022-07-26T11:58:28.672Z,99535.15
2022-07-26T11:59:35.990Z,99532.39
2022-07-26T12:00:45.260Z,99532.39
2022-07-26T12:01:54.745Z,99522.44
2022-07-26T12:02:56.647Z,99522.44
2022-07-26T12:04:02.538Z,99526.00
2022-07-26T12:05:22.232Z,99529.57
2022-07-26T12:06:31.430Z,99529.57
2022-07-26T12:07:42.215Z,99053.43
2022-07-26T12:08:55.695Z,99517.95
2022-07-26T12:09:55.984Z,99522.39
2022-07-26T12:11:03.843Z,99517.41
2022-07-26T12:12:19.243Z,99509.17
2022-07-26T12:13:23.464Z,99517.98
2022-07-26T12:14:32.385Z,99517.98
2022-07-26T12:15:46.753Z,99509.44
2022-07-26T12:16:57.530Z,99513.27
2022-07-26T12:18:02.550Z,99513.27
2022-07-26T12:19:11.196Z,99495.34
2022-07-26T12:20:25.660Z,99495.34
2022-07-26T12:21:45.097Z,99498.14
2022-07-26T12:22:59.215Z,99505.56
2022-07-26T12:24:11.997Z,99505.56
2022-07-26T12:25:18.103Z,99497.59
2022-07-26T12:26:41.230Z,99504.75
2022-07-26T12:27:50.263Z,99503.67
2022-07-26T12:28:51.188Z,99502.86
2022-07-26T12:30:04.094Z,99505.87
2022-07-26T12:31:34.396Z,99505.87
2022-07-26T12:32:37.698Z,99500.06
2022-07-26T12:33:54.568Z,99500.06
2022-07-26T12:35:03.089Z,99507.52
2022-07-26T12:36:27.731Z,99504.24
2022-07-26T12:39:15.491Z,99504.25
2022-07-26T12:39:37.288Z,99507.27
2022-07-26T12:40:20.655Z,99510.29
2022-07-26T12:41:45.561Z,99510.29
2022-07-26T12:43:01.290Z,99434.53
2022-07-26T12:44:04.430Z,99508.63
2022-07-26T12:45:13.113Z,99508.63
2022-07-26T12:46:22.749Z,99502.28
2022-07-26T12:47:37.993Z,99510.83
2022-07-26T12:50:14.693Z,99502.23
2022-07-26T12:54:42.124Z,99487.64
2022-07-26T12:55:51.184Z,99487.64
2022-07-26T12:58:23.876Z,99488.72
2022-07-26T13:00:18.698Z,99495.05
2022-07-26T13:00:36.979Z,99495.05
2022-07-26T13:01:44.245Z,99497.52
2022-07-26T13:02:53.699Z,99496.41
2022-07-26T13:05:23.417Z,99503.02
2022-07-26T13:06:51.390Z,99502.52
2022-07-26T13:07:59.550Z,99494.52
2022-07-26T13:09:03.600Z,99497.59
2022-07-26T13:10:35.699Z,99500.91
2022-07-26T13:11:23.005Z,99495.41
2022-07-26T13:12:35.249Z,99495.41
2022-07-26T13:13:38.980Z,99487.69
2022-07-26T13:14:44.870Z,99493.17
2022-07-26T13:15:50.717Z,99494.28
2022-07-26T13:16:59.523Z,99490.97